createdAt,value
2023-04-15T00:00:59.971Z,10.34
2023-04-15T00:03:29.009Z,10.30
2023-04-15T00:05:57.596Z,10.30
2023-04-15T00:08:27.695Z,10.28
2023-04-15T00:10:56.498Z,10.30
2023-04-15T00:13:24.466Z,10.33
2023-04-15T00:15:52.707Z,10.32
2023-04-15T00:18:21.227Z,10.32
2023-04-15T00:20:49.766Z,10.32
2023-04-15T00:23:18.191Z,10.31
2023-04-15T00:25:47.895Z,10.32
2023-04-15T00:28:15.798Z,10.34
2023-04-15T00:30:45.095Z,10.34
2023-04-15T00:33:14.366Z,10.34
2023-04-15T00:35:42.650Z,10.32
2023-04-15T00:38:10.768Z,10.33
2023-04-15T00:40:39.330Z,10.28
2023-04-15T00:43:08.710Z,10.25
2023-04-15T00:45:37.651Z,10.23
2023-04-15T00:48:07.246Z,10.24
2023-04-15T00:50:35.655Z,10.23
2023-04-15T00:53:04.029Z,10.23
2023-04-15T00:55:33.129Z,10.25
2023-04-15T00:58:01.824Z,10.25
2023-04-15T01:00:31.903Z,10.25
2023-04-15T01:03:00.259Z,10.26
2023-04-15T01:05:29.593Z,10.27
2023-04-15T01:07:58.596Z,10.27
2023-04-15T01:10:27.655Z,10.28
2023-04-15T01:12:56.151Z,10.27
2023-04-15T01:15:24.298Z,10.26
2023-04-15T01:17:54.110Z,10.25
2023-04-15T01:20:23.713Z,10.25
2023-04-15T01:22:53.074Z,10.23
2023-04-15T01:25:32.909Z,10.19
2023-04-15T01:28:01.541Z,10.20
2023-04-15T01:30:30.891Z,10.21
2023-04-15T01:32:59.235Z,10.20
2023-04-15T01:35:46.695Z,10.16
2023-04-15T01:38:14.740Z,10.17
2023-04-15T01:40:45.184Z,10.16
2023-04-15T01:43:15.436Z,10.14
2023-04-15T01:45:45.262Z,10.11
2023-04-15T01:48:15.143Z,10.11
2023-04-15T01:50:44.918Z,10.10
2023-04-15T01:53:14.255Z,10.09
2023-04-15T01:55:45.251Z,10.09
2023-04-15T01:58:17.375Z,10.09
2023-04-15T02:00:47.490Z,10.08
2023-04-15T02:03:17.112Z,10.06
2023-04-15T02:05:46.538Z,10.10
2023-04-15T02:08:15.995Z,10.06
2023-04-15T02:10:48.024Z,10.07
2023-04-15T02:13:17.375Z,10.05
2023-04-15T02:15:49.330Z,10.04
2023-04-15T02:18:18.946Z,10.04
2023-04-15T02:20:48.916Z,10.06
2023-04-15T02:23:18.160Z,10.05
2023-04-15T02:25:53.545Z,10.05
2023-04-15T02:28:24.080Z,10.04
2023-04-15T02:30:54.765Z,10.03
2023-04-15T02:33:25.081Z,10.01
2023-04-15T02:35:54.364Z,10.04
2023-04-15T02:38:23.949Z,10.05
2023-04-15T02:40:55.095Z,10.01
2023-04-15T02:43:24.783Z,10.00
2023-04-15T02:45:54.813Z,9.99
2023-04-15T02:48:24.346Z,9.98
2023-04-15T02:50:54.534Z,9.98
2023-04-15T02:53:23.911Z,10.01
2023-04-15T02:55:54.716Z,10.01
2023-04-15T02:58:24.696Z,10.00
2023-04-15T03:00:54.409Z,10.00
2023-04-15T03:03:24.041Z,10.02
2023-04-15T03:05:53.533Z,9.98
2023-04-15T03:08:23.063Z,9.99
2023-04-15T03:10:54.937Z,10.00
2023-04-15T03:13:24.944Z,9.99
2023-04-15T03:15:54.378Z,9.97
2023-04-15T03:18:26.186Z,9.98
2023-04-15T03:20:55.712Z,9.96
2023-04-15T03:23:26.557Z,9.95
2023-04-15T03:25:58.443Z,9.95
2023-04-15T03:28:29.625Z,9.94
2023-04-15T03:31:01.410Z,9.94
2023-04-15T03:33:31.043Z,9.91
2023-04-15T03:36:00.686Z,9.89
2023-04-15T03:38:30.670Z,9.87
2023-04-15T03:41:01.704Z,9.88
2023-04-15T03:43:31.306Z,9.88
2023-04-15T03:46:01.910Z,9.81
2023-04-15T03:48:32.132Z,9.85
2023-04-15T03:51:01.645Z,9.84
2023-04-15T03:53:31.258Z,9.84
2023-04-15T03:56:01.838Z,9.87
2023-04-15T03:58:55.009Z,9.87
2023-04-15T04:01:24.335Z,9.90
2023-04-15T04:03:54.170Z,9.89
2023-04-15T04:06:26.864Z,9.91
2023-04-15T04:08:57.210Z,9.89
2023-04-15T04:11:28.936Z,9.88
2023-04-15T04:13:58.237Z,9.88
2023-04-15T04:16:27.946Z,9.86
2023-04-15T04:18:57.508Z,9.85
2023-04-15T04:21:26.941Z,9.84
2023-04-15T04:23:56.861Z,9.85
2023-04-15T04:26:26.475Z,9.84
2023-04-15T04:28:58.027Z,9.84
2023-04-15T04:31:27.656Z,9.85
2023-04-15T04:33:57.315Z,9.86
2023-04-15T04:36:26.619Z,9.88
2023-04-15T04:38:56.232Z,9.85
2023-04-15T04:41:26.503Z,9.85
2023-04-15T04:43:57.062Z,9.90
2023-04-15T04:46:26.408Z,9.90
2023-04-15T04:48:56.316Z,9.91
2023-04-15T04:51:26.223Z,9.94
2023-04-15T04:53:56.873Z,9.95
2023-04-15T04:56:26.577Z,9.92
2023-04-15T04:58:57.514Z,9.94
2023-04-15T05:01:27.662Z,9.98
2023-04-15T05:03:57.839Z,9.96
2023-04-15T05:06:27.709Z,9.99
2023-04-15T05:08:57.126Z,10.02
2023-04-15T05:11:26.545Z,10.02
2023-04-15T05:13:58.661Z,10.03
2023-04-15T05:16:28.545Z,10.05
2023-04-15T05:18:57.950Z,10.05
2023-04-15T05:21:27.745Z,10.05
2023-04-15T05:23:57.398Z,10.06
2023-04-15T05:26:27.708Z,10.08
2023-04-15T05:28:58.751Z,10.08
2023-04-15T05:31:28.884Z,10.09
2023-04-15T05:33:59.225Z,10.12
2023-04-15T05:36:30.261Z,10.10
2023-04-15T05:39:00.623Z,10.12
2023-04-15T05:41:30.712Z,10.10
2023-04-15T05:44:02.354Z,10.10
2023-04-15T05:46:31.894Z,10.09
2023-04-15T05:49:01.495Z,10.09
2023-04-15T05:51:31.486Z,10.10
2023-04-15T05:54:01.884Z,10.13
2023-04-15T05:56:32.091Z,10.17
2023-04-15T05:59:03.009Z,10.18
2023-04-15T06:01:33.048Z,10.21
2023-04-15T06:04:03.416Z,10.24
2023-04-15T06:06:33.584Z,10.25
2023-04-15T06:09:02.901Z,10.29
2023-04-15T06:11:33.513Z,10.34
2023-04-15T06:14:05.736Z,10.37
2023-04-15T06:16:36.678Z,10.43
2023-04-15T06:19:06.361Z,10.45
2023-04-15T06:21:35.903Z,10.47
2023-04-15T06:24:05.732Z,10.53
2023-04-15T06:26:35.252Z,10.54
2023-04-15T06:29:06.308Z,10.57
2023-04-15T06:31:36.048Z,10.62
2023-04-15T06:34:05.696Z,10.65
2023-04-15T06:36:35.926Z,10.67
2023-04-15T06:39:05.220Z,10.71
2023-04-15T06:41:35.856Z,10.73
2023-04-15T06:44:07.051Z,10.80
2023-04-15T06:46:37.019Z,10.84
2023-04-15T06:49:07.227Z,10.88
2023-04-15T06:51:37.421Z,10.92
2023-04-15T06:54:07.591Z,10.97
2023-04-15T06:56:37.048Z,11.04
2023-04-15T06:59:09.054Z,11.11
2023-04-15T07:01:38.602Z,11.20
2023-04-15T07:04:08.603Z,11.25
2023-04-15T07:06:38.049Z,11.30
2023-04-15T07:09:08.931Z,11.32
2023-04-15T07:11:38.240Z,11.37
2023-04-15T07:14:08.922Z,11.43
2023-04-15T07:16:38.640Z,11.52
2023-04-15T07:19:08.842Z,11.60
2023-04-15T07:21:41.677Z,11.68
2023-04-15T07:24:12.164Z,11.75
2023-04-15T07:26:41.820Z,11.81
2023-04-15T07:29:13.518Z,11.87
2023-04-15T07:31:43.561Z,11.95
2023-04-15T07:34:13.180Z,12.05
2023-04-15T07:36:42.598Z,12.13
2023-04-15T07:39:12.106Z,12.22
2023-04-15T07:41:42.064Z,12.26
2023-04-15T07:44:14.352Z,12.34
2023-04-15T07:46:43.702Z,12.40
2023-04-15T07:49:14.194Z,12.45
2023-04-15T07:51:44.726Z,12.51
2023-04-15T07:54:14.122Z,12.71
2023-04-15T07:56:43.748Z,12.92
2023-04-15T07:59:15.388Z,13.17
2023-04-15T08:01:45.367Z,13.42
2023-04-15T08:04:14.821Z,13.54
2023-04-15T08:06:44.312Z,13.65
2023-04-15T08:09:14.208Z,13.76
2023-04-15T08:11:44.037Z,13.82
2023-04-15T08:14:14.857Z,13.90
2023-04-15T08:16:44.378Z,13.88
2023-04-15T08:19:13.699Z,13.93
2023-04-15T08:21:43.816Z,13.99
2023-04-15T08:24:13.130Z,14.05
2023-04-15T08:26:43.219Z,14.11
2023-04-15T08:29:13.969Z,14.28
2023-04-15T08:31:44.996Z,14.43
2023-04-15T08:34:14.318Z,14.57
2023-04-15T08:36:44.079Z,14.64
2023-04-15T08:39:14.129Z,14.65
2023-04-15T08:41:49.080Z,14.55
2023-04-15T08:44:20.487Z,14.51
2023-04-15T08:46:51.187Z,14.42
2023-04-15T08:49:23.171Z,14.36
2023-04-15T08:51:52.895Z,14.31
2023-04-15T08:54:22.834Z,14.29
2023-04-15T08:56:53.672Z,14.32
2023-04-15T08:59:26.048Z,14.30
2023-04-15T09:01:56.684Z,14.35
2023-04-15T09:04:26.551Z,14.26
2023-04-15T09:06:55.864Z,14.22
2023-04-15T09:09:25.635Z,14.21
2023-04-15T09:11:54.901Z,14.21
2023-04-15T09:14:26.403Z,14.21
2023-04-15T09:17:00.629Z,14.16
2023-04-15T09:19:31.209Z,14.14
2023-04-15T09:22:01.292Z,14.12
2023-04-15T09:24:38.736Z,14.07
2023-04-15T09:27:08.318Z,14.12
2023-04-15T09:29:39.543Z,14.15
2023-04-15T09:32:14.234Z,14.11
2023-04-15T09:34:44.875Z,14.12
2023-04-15T09:37:29.052Z,14.13
2023-04-15T09:40:01.952Z,14.14
2023-04-15T09:42:32.619Z,14.17
2023-04-15T09:45:12.602Z,14.25
2023-04-15T09:47:42.802Z,14.37
2023-04-15T09:50:12.868Z,14.51
2023-04-15T09:52:44.751Z,14.61
2023-04-15T09:55:16.134Z,14.64
2023-04-15T09:57:48.455Z,14.73
2023-04-15T10:00:19.572Z,14.82
2023-04-15T10:02:50.090Z,14.84
2023-04-15T10:05:20.199Z,14.83
2023-04-15T10:07:51.053Z,14.82
2023-04-15T10:10:21.546Z,14.80
2023-04-15T10:12:55.916Z,14.80
2023-04-15T10:15:31.097Z,14.75
2023-04-15T10:18:02.471Z,14.71
2023-04-15T10:20:32.555Z,14.70
2023-04-15T10:23:03.734Z,14.70
2023-04-15T10:25:35.118Z,14.75
2023-04-15T10:28:04.702Z,14.78
2023-04-15T10:30:37.564Z,14.73
2023-04-15T10:33:10.570Z,14.77
2023-04-15T10:35:40.836Z,14.82
2023-04-15T10:38:37.173Z,14.91
2023-04-15T10:41:22.412Z,15.13
2023-04-15T10:43:54.136Z,15.43
2023-04-15T10:46:37.853Z,15.72
2023-04-15T10:49:13.003Z,15.92
2023-04-15T10:51:44.496Z,16.08
2023-04-15T10:54:17.732Z,16.23
2023-04-15T10:56:52.094Z,16.43
2023-04-15T10:59:23.641Z,16.65
2023-04-15T11:01:56.603Z,16.79
2023-04-15T11:04:53.063Z,16.96
2023-04-15T11:07:36.688Z,17.05
2023-04-15T11:10:54.180Z,17.06
2023-04-15T11:13:27.506Z,16.99
2023-04-15T11:16:00.516Z,16.94
2023-04-15T11:18:34.958Z,16.89
2023-04-15T11:21:07.790Z,16.90
2023-04-15T11:23:40.946Z,16.67
2023-04-15T11:26:12.453Z,16.63
2023-04-15T11:28:45.429Z,16.68
2023-04-15T11:31:17.798Z,16.73
2023-04-15T11:33:56.711Z,16.79
2023-04-15T11:36:29.021Z,16.53
2023-04-15T11:39:00.609Z,16.24
2023-04-15T11:41:30.488Z,16.10
2023-04-15T11:44:00.177Z,15.96
2023-04-15T11:46:33.188Z,15.86
2023-04-15T11:49:05.181Z,15.50
2023-04-15T11:51:36.127Z,15.23
2023-04-15T11:54:04.616Z,15.00
2023-04-15T11:56:33.365Z,14.83
2023-04-15T11:59:02.480Z,14.69
2023-04-15T12:01:35.107Z,14.46
2023-04-15T12:04:13.134Z,14.33
2023-04-15T12:06:42.145Z,14.16
2023-04-15T12:09:12.795Z,14.01
2023-04-15T12:11:45.197Z,13.97
2023-04-15T12:14:21.313Z,13.87
2023-04-15T12:16:52.545Z,13.79
2023-04-15T12:19:26.909Z,13.80
2023-04-15T12:22:01.736Z,13.78
2023-04-15T12:24:33.060Z,13.78
2023-04-15T12:27:04.738Z,13.74
2023-04-15T12:29:35.018Z,13.73
2023-04-15T12:32:07.694Z,13.77
2023-04-15T12:34:39.109Z,13.83
2023-04-15T12:37:10.115Z,13.92
2023-04-15T12:39:41.211Z,14.01
2023-04-15T12:42:11.495Z,14.08
2023-04-15T12:44:40.570Z,14.15
2023-04-15T12:47:11.074Z,14.24
2023-04-15T12:49:41.688Z,14.31
2023-04-15T12:52:10.908Z,14.38
2023-04-15T12:54:39.184Z,14.40
2023-04-15T12:57:10.673Z,14.42
2023-04-15T12:59:38.822Z,14.42
2023-04-15T13:02:08.121Z,14.42
2023-04-15T13:04:36.623Z,14.46
2023-04-15T13:07:06.702Z,14.48
2023-04-15T13:09:35.814Z,14.46
2023-04-15T13:12:05.611Z,14.44
2023-04-15T13:14:34.248Z,14.39
2023-04-15T13:17:04.466Z,14.40
2023-04-15T13:19:33.311Z,14.37
2023-04-15T13:22:02.100Z,14.34
2023-04-15T13:24:32.078Z,14.29
2023-04-15T13:27:00.274Z,14.26
2023-04-15T13:29:28.843Z,14.21
2023-04-15T13:31:56.982Z,14.16
2023-04-15T13:34:25.500Z,14.13
2023-04-15T13:36:53.892Z,14.07
2023-04-15T13:39:22.998Z,13.99
2023-04-15T13:41:52.717Z,13.91
2023-04-15T13:44:22.188Z,13.88
2023-04-15T13:46:51.719Z,13.78
2023-04-15T13:49:19.833Z,13.69
2023-04-15T13:51:48.413Z,13.64
2023-04-15T13:54:17.451Z,13.61
2023-04-15T13:56:46.372Z,13.59
2023-04-15T13:59:16.147Z,13.50
2023-04-15T14:01:45.118Z,13.49
2023-04-15T14:04:13.641Z,13.47
2023-04-15T14:06:42.213Z,13.49
2023-04-15T14:09:11.013Z,13.49
2023-04-15T14:11:39.708Z,13.53
2023-04-15T14:14:07.841Z,13.59
2023-04-15T14:16:37.838Z,13.65
2023-04-15T14:19:06.508Z,13.72
2023-04-15T14:21:34.663Z,13.83
2023-04-15T14:24:03.181Z,13.92
2023-04-15T14:26:33.513Z,14.00
2023-04-15T14:29:01.897Z,14.03
2023-04-15T14:31:30.345Z,14.09
2023-04-15T14:34:00.293Z,14.10
2023-04-15T14:36:29.507Z,14.12
2023-04-15T14:38:58.825Z,14.18
2023-04-15T14:41:27.346Z,14.21
2023-04-15T14:43:55.438Z,14.17
2023-04-15T14:46:24.017Z,14.13
2023-04-15T14:48:52.748Z,14.15
2023-04-15T14:51:24.170Z,14.12
2023-04-15T14:53:52.721Z,14.06
2023-04-15T14:56:20.900Z,14.02
2023-04-15T14:58:49.631Z,13.98
2023-04-15T15:01:18.368Z,13.97
2023-04-15T15:03:47.013Z,13.95
2023-04-15T15:06:15.538Z,14.08
2023-04-15T15:08:49.818Z,14.29
2023-04-15T15:11:18.349Z,14.46
2023-04-15T15:13:46.810Z,14.63
2023-04-15T15:16:15.508Z,14.73
2023-04-15T15:18:43.848Z,14.69
2023-04-15T15:21:14.283Z,14.32
2023-04-15T15:23:42.992Z,13.99
2023-04-15T15:26:13.531Z,13.79
2023-04-15T15:28:42.207Z,13.60
2023-04-15T15:31:10.558Z,13.45
2023-04-15T15:33:38.621Z,13.30
2023-04-15T15:36:07.966Z,13.15
2023-04-15T15:38:36.145Z,13.06
2023-04-15T15:41:04.525Z,12.84
2023-04-15T15:43:34.293Z,12.74
2023-04-15T15:46:02.681Z,12.74
2023-04-15T15:48:31.365Z,12.63
2023-04-15T15:50:59.723Z,12.57
2023-04-15T15:53:28.302Z,12.61
2023-04-15T15:55:56.446Z,12.52
2023-04-15T15:58:25.290Z,12.44
2023-04-15T16:00:55.580Z,12.42
2023-04-15T16:03:24.313Z,12.39
2023-04-15T16:05:52.552Z,12.41
2023-04-15T16:08:21.573Z,12.41
2023-04-15T16:10:51.077Z,12.40
2023-04-15T16:13:19.250Z,12.35
2023-04-15T16:15:48.179Z,12.32
2023-04-15T16:18:18.500Z,12.25
2023-04-15T16:20:47.093Z,12.21
2023-04-15T16:23:17.563Z,12.13
2023-04-15T16:25:47.590Z,12.12
2023-04-15T16:28:26.491Z,12.11
2023-04-15T16:30:56.232Z,12.08
2023-04-15T16:33:26.051Z,12.08
2023-04-15T16:35:53.997Z,12.00
2023-04-15T16:38:23.183Z,12.00
2023-04-15T16:40:51.592Z,11.96
2023-04-15T16:43:20.080Z,11.94
2023-04-15T16:45:51.606Z,11.91
2023-04-15T16:48:21.291Z,11.93
2023-04-15T16:50:51.292Z,11.86
2023-04-15T16:53:19.391Z,11.80
2023-04-15T16:55:47.662Z,11.81
2023-04-15T16:58:16.047Z,11.76
2023-04-15T17:00:44.649Z,11.67
2023-04-15T17:03:13.018Z,11.53
2023-04-15T17:05:42.380Z,11.47
2023-04-15T17:08:12.472Z,11.42
2023-04-15T17:10:40.913Z,11.45
2023-04-15T17:13:08.973Z,11.37
2023-04-15T17:15:37.102Z,11.27
2023-04-15T17:18:23.366Z,11.22
2023-04-15T17:21:06.375Z,11.17
2023-04-15T17:23:37.001Z,11.21
2023-04-15T17:26:05.733Z,11.24
2023-04-15T17:28:34.274Z,11.24
2023-04-15T17:31:06.189Z,11.19
2023-04-15T17:34:05.423Z,11.17
2023-04-15T17:36:38.065Z,11.18
2023-04-15T17:39:27.874Z,11.15
2023-04-15T17:42:17.166Z,11.13
2023-04-15T17:45:05.985Z,11.09
2023-04-15T17:47:54.510Z,11.02
2023-04-15T17:50:43.038Z,10.96
2023-04-15T17:53:31.494Z,11.01
2023-04-15T17:56:20.874Z,11.00
2023-04-15T17:59:09.244Z,10.95
2023-04-15T18:01:57.282Z,10.95
2023-04-15T18:04:45.407Z,10.96
2023-04-15T18:07:34.584Z,10.96
2023-04-15T18:10:24.313Z,10.98
2023-04-15T18:13:13.647Z,11.00
2023-04-15T18:16:02.148Z,11.03
2023-04-15T18:18:50.505Z,10.96
2023-04-15T18:21:18.505Z,10.96
2023-04-15T18:23:47.293Z,10.95
2023-04-15T18:26:15.702Z,10.91
2023-04-15T18:28:45.275Z,10.91
2023-04-15T18:31:14.017Z,10.91
2023-04-15T18:33:42.977Z,10.91
2023-04-15T18:36:11.823Z,10.91
2023-04-15T18:38:40.343Z,10.91
2023-04-15T18:41:10.149Z,10.93
2023-04-15T18:43:38.722Z,10.93
2023-04-15T18:46:11.746Z,10.93
2023-04-15T18:48:40.144Z,11.06
2023-04-15T18:51:09.616Z,11.15
2023-04-15T18:53:38.471Z,11.27
2023-04-15T18:56:07.165Z,11.27
2023-04-15T18:59:26.318Z,11.14
2023-04-15T19:01:26.517Z,11.05
2023-04-15T19:03:54.947Z,11.01
2023-04-15T19:06:24.318Z,10.97
2023-04-15T19:08:53.168Z,10.97
2023-04-15T19:11:21.841Z,10.99
2023-04-15T19:13:50.193Z,11.00
2023-04-15T19:16:19.256Z,10.98
2023-04-15T19:18:48.762Z,10.96
2023-04-15T19:21:17.396Z,10.93
2023-04-15T19:23:45.803Z,10.96
2023-04-15T19:26:14.554Z,10.93
2023-04-15T19:28:42.949Z,10.90
2023-04-15T19:31:11.313Z,10.86
2023-04-15T19:33:39.752Z,10.89
2023-04-15T19:36:09.094Z,10.89
2023-04-15T19:38:37.426Z,10.89
2023-04-15T19:41:09.753Z,10.86
2023-04-15T19:43:38.020Z,10.96
2023-04-15T19:46:07.809Z,11.21
2023-04-15T19:48:37.233Z,11.24
2023-04-15T19:51:06.008Z,11.17
2023-04-15T19:53:36.067Z,11.08
2023-04-15T19:56:04.568Z,11.05
2023-04-15T19:58:32.859Z,10.99
2023-04-15T20:01:02.373Z,10.95
2023-04-15T20:03:31.802Z,10.94
2023-04-15T20:06:00.332Z,10.88
2023-04-15T20:08:28.441Z,10.86
2023-04-15T20:10:59.261Z,10.84
2023-04-15T20:13:27.636Z,10.84
2023-04-15T20:15:56.482Z,10.84
2023-04-15T20:18:25.054Z,10.80
2023-04-15T20:20:53.796Z,10.76
2023-04-15T20:23:21.846Z,10.77
2023-04-15T20:25:49.983Z,10.76
2023-04-15T20:28:20.037Z,10.71
2023-04-15T20:30:48.271Z,10.71
2023-04-15T20:33:16.415Z,10.88
2023-04-15T20:35:44.433Z,11.30
2023-04-15T20:38:15.351Z,11.70
2023-04-15T20:40:43.716Z,12.02
2023-04-15T20:43:12.011Z,12.24
2023-04-15T20:45:41.740Z,12.28
2023-04-15T20:48:10.369Z,11.97
2023-04-15T20:50:39.756Z,11.63
2023-04-15T20:53:08.088Z,11.41
2023-04-15T20:55:36.388Z,11.25
2023-04-15T20:58:04.849Z,11.17
2023-04-15T21:00:33.660Z,11.06
2023-04-15T21:03:03.532Z,11.00
2023-04-15T21:05:31.780Z,10.88
2023-04-15T21:08:00.142Z,10.81
2023-04-15T21:10:34.103Z,10.73
2023-04-15T21:13:02.996Z,10.71
2023-04-15T21:15:31.052Z,10.65
2023-04-15T21:17:59.613Z,10.60
2023-04-15T21:20:29.122Z,10.53
2023-04-15T21:22:57.218Z,10.47
2023-04-15T21:25:26.179Z,10.44
2023-04-15T21:27:54.621Z,10.44
2023-04-15T21:30:26.299Z,10.44
2023-04-15T21:32:55.714Z,10.39
2023-04-15T21:35:24.055Z,10.37
2023-04-15T21:37:53.722Z,10.38
2023-04-15T21:40:22.772Z,10.35
2023-04-15T21:42:51.810Z,10.33
2023-04-15T21:45:20.124Z,10.31
2023-04-15T21:48:06.776Z,10.33
2023-04-15T21:50:37.385Z,10.32
2023-04-15T21:53:09.189Z,10.30
2023-04-15T21:55:37.429Z,10.26
2023-04-15T21:58:05.558Z,10.24
2023-04-15T22:00:34.769Z,10.24
2023-04-15T22:03:03.092Z,10.27
2023-04-15T22:05:31.553Z,10.23
2023-04-15T22:08:03.646Z,10.19
2023-04-15T22:10:34.006Z,10.16
2023-04-15T22:13:04.316Z,10.08
2023-04-15T22:15:33.111Z,10.06
2023-04-15T22:18:02.478Z,10.09
2023-04-15T22:20:30.763Z,10.10
2023-04-15T22:22:58.786Z,10.07
2023-04-15T22:25:27.070Z,10.08
2023-04-15T22:27:56.865Z,10.09
2023-04-15T22:30:25.255Z,10.08
2023-04-15T22:32:53.720Z,10.05
2023-04-15T22:35:22.140Z,10.06
2023-04-15T22:37:50.268Z,10.04
2023-04-15T22:40:18.536Z,10.04
2023-04-15T22:42:47.462Z,10.02
2023-04-15T22:45:17.555Z,9.99
2023-04-15T22:47:47.719Z,10.01
2023-04-15T22:50:16.258Z,10.03
2023-04-15T22:52:46.268Z,10.00
2023-04-15T22:55:14.245Z,9.94
2023-04-15T22:57:42.746Z,9.94
2023-04-15T23:00:11.376Z,9.92
2023-04-15T23:02:41.357Z,9.91
2023-04-15T23:05:13.043Z,9.88
2023-04-15T23:07:41.968Z,9.82
2023-04-15T23:10:10.562Z,9.78
2023-04-15T23:12:38.899Z,9.74
2023-04-15T23:15:07.867Z,9.73
2023-04-15T23:17:36.275Z,9.74
2023-04-15T23:20:06.516Z,9.75
2023-04-15T23:22:37.565Z,9.76
2023-04-15T23:25:06.268Z,9.77
2023-04-15T23:27:34.512Z,9.75
2023-04-15T23:30:03.810Z,9.78
2023-04-15T23:32:31.950Z,9.78
2023-04-15T23:35:00.235Z,9.76
2023-04-15T23:37:30.993Z,9.73
2023-04-15T23:39:59.963Z,9.73
2023-04-15T23:42:28.013Z,9.73
2023-04-15T23:44:56.318Z,9.75
2023-04-15T23:47:24.451Z,9.75
2023-04-15T23:49:53.075Z,9.75
2023-04-15T23:52:21.482Z,9.75
2023-04-15T23:54:50.953Z,9.72
2023-04-15T23:57:20.037Z,9.69
2023-04-15T23:59:48.320Z,9.72
